Temp: 6.9°C   Baro: 1001.6mb
  Wind: 2.0mph   Dir: SSE (164°)
  Rain: 0.2mm (0.0mm/hr)
  Solar: 213W/m2  Hum: 85%
 
Cotswold Observatory Historical Data
 
Daily Summary for December 11, 2019 Units:  Metric    English   Both
Next Day »
Daily Weekly Monthly Yearly Custom
  Current: High: Low: Average:
Temperature: 6.9 °C 7.7 °C 4.8 °C 5.9 °C
Dew Point: 4.6 °C 5.1 °C 3.0 °C 3.8 °C
Humidity: 85% 91% 80% 86%
Wind Speed: 3.2km/h 20.9km/h 0.0km/h 6.3km/h
Wind Gust: 16.1km/h 24.1km/h - -
Wind directionSSE - - SSW
Pressure: 1001.6 hPa 1009.0 hPa 1001.6 hPa -
Precipitation: 0.3 mm      
Historical Graphs
 
 
Tabular Data for December 11, 2019
Time Temperature Dew Point Pressure Wind direction Wind Speed Wind Gust Humidity Rainfall Rate (Hourly) solar
00:00 7.1 °C 5.1 °C 1008.7 hPa SW 3.2 km/h 11.3 km/h 87% 0.0 mm 0.00 W/m2
00:05 7.1 °C 5.1 °C 1008.7 hPa SW 4.7 km/h 11.3 km/h 87% 0.0 mm 0.00 W/m2
00:10 7.1 °C 5.1 °C 1008.7 hPa SW 3.2 km/h 14.5 km/h 87% 0.0 mm 0.00 W/m2
00:15 7.0 °C 4.8 °C 1008.7 hPa SW 11.1 km/h 11.3 km/h 86% 0.0 mm 0.00 W/m2
00:20 6.9 °C 4.7 °C 1008.4 hPa WSW 13.0 km/h 17.7 km/h 86% 0.0 mm 0.00 W/m2
00:25 6.9 °C 4.6 °C 1008.4 hPa WSW 16.3 km/h 20.9 km/h 85% 0.0 mm 0.00 W/m2
00:30 6.9 °C 4.6 °C 1008.7 hPa SSW 3.2 km/h 6.4 km/h 85% 0.0 mm 0.00 W/m2
00:35 6.8 °C 4.5 °C 1008.7 hPa SSW 3.2 km/h 17.7 km/h 85% 0.0 mm 0.00 W/m2
00:40 6.7 °C 4.4 °C 1008.7 hPa WSW 11.1 km/h 11.3 km/h 85% 0.0 mm 0.00 W/m2
00:45 6.7 °C 4.4 °C 1008.7 hPa SW 4.7 km/h 11.3 km/h 85% 0.0 mm 0.00 W/m2
00:50 6.6 °C 4.3 °C 1008.7 hPa SW 3.2 km/h 11.3 km/h 85% 0.0 mm 0.00 W/m2
00:55 6.6 °C 4.3 °C 1008.7 hPa SW 6.4 km/h 6.4 km/h 85% 0.0 mm 0.00 W/m2
01:00 6.6 °C 4.4 °C 1008.7 hPa SW 1.4 km/h 6.4 km/h 86% 0.0 mm 0.00 W/m2
01:05 6.6 °C 4.4 °C 1008.7 hPa Calm   4.8 km/h 86% 0.0 mm 0.00 W/m2
01:10 6.5 °C 4.2 °C 1008.7 hPa SW 3.2 km/h 11.3 km/h 85% 0.0 mm 0.00 W/m2
01:15 6.4 °C 4.2 °C 1008.7 hPa SW 3.2 km/h 8.0 km/h 86% 0.0 mm 0.00 W/m2
01:20 6.4 °C 4.4 °C 1008.7 hPa SW 3.2 km/h 14.5 km/h 87% 0.0 mm 0.00 W/m2
01:25 6.4 °C 4.4 °C 1008.7 hPa SW 1.4 km/h 9.7 km/h 87% 0.0 mm 0.00 W/m2
01:30 6.4 °C 4.4 °C 1008.7 hPa SW 4.7 km/h 6.4 km/h 87% 0.0 mm 0.00 W/m2
01:35 6.5 °C 4.7 °C 1008.7 hPa SW 3.2 km/h 6.4 km/h 88% 0.0 mm 0.00 W/m2
01:40 6.5 °C 4.7 °C 1008.7 hPa SW 1.4 km/h 3.2 km/h 88% 0.0 mm 0.00 W/m2
01:45 6.4 °C 4.4 °C 1008.7 hPa Calm     87% 0.0 mm 0.00 W/m2
01:50 6.3 °C 4.3 °C 1009.0 hPa Calm     87% 0.0 mm 0.00 W/m2
01:55 6.2 °C 4.4 °C 1008.7 hPa Calm     88% 0.0 mm 0.00 W/m2
02:00 6.0 °C 4.2 °C 1008.7 hPa Calm   1.6 km/h 88% 0.0 mm 0.00 W/m2
02:05 5.8 °C 4.0 °C 1009.0 hPa Calm     88% 0.0 mm 0.00 W/m2
02:10 5.7 °C 3.9 °C 1009.0 hPa Calm     88% 0.0 mm 0.00 W/m2
02:15 5.4 °C 3.7 °C 1008.7 hPa Calm     89% 0.0 mm 0.00 W/m2
02:20 5.3 °C 3.6 °C 1008.7 hPa Calm   4.8 km/h 89% 0.0 mm 0.00 W/m2
02:25 5.1 °C 3.4 °C 1008.7 hPa Calm   3.2 km/h 89% 0.0 mm 0.00 W/m2
02:30 5.1 °C 3.6 °C 1008.7 hPa SSW 4.7 km/h 6.4 km/h 90% 0.0 mm 0.00 W/m2
02:35 5.2 °C 3.9 °C 1008.7 hPa SSW 3.2 km/h 8.0 km/h 91% 0.0 mm 0.00 W/m2
02:40 5.3 °C 4.0 °C 1009.0 hPa SSW 6.4 km/h 6.4 km/h 91% 0.0 mm 0.00 W/m2
02:45 5.4 °C 4.0 °C 1009.0 hPa SSW 1.4 km/h 11.3 km/h 91% 0.0 mm 0.00 W/m2
02:50 5.5 °C 4.0 °C 1008.7 hPa South 4.7 km/h 9.7 km/h 90% 0.0 mm 0.00 W/m2
02:55 5.7 °C 4.2 °C 1008.7 hPa Calm   8.0 km/h 90% 0.0 mm 0.00 W/m2
03:00 5.7 °C 4.2 °C 1008.7 hPa Calm   4.8 km/h 90% 0.0 mm 0.00 W/m2
03:05 5.7 °C 4.0 °C 1008.7 hPa SSW 4.7 km/h 4.8 km/h 89% 0.0 mm 0.00 W/m2
03:10 5.7 °C 4.0 °C 1008.7 hPa SSW 3.2 km/h 8.0 km/h 89% 0.0 mm 0.00 W/m2
03:15 5.6 °C 3.8 °C 1008.7 hPa SSW 6.4 km/h 6.4 km/h 88% 0.0 mm 0.00 W/m2
03:20 5.5 °C 3.7 °C 1008.7 hPa SSW 7.9 km/h 9.7 km/h 88% 0.0 mm 0.00 W/m2
03:25 5.6 °C 3.8 °C 1008.4 hPa SSW 13.0 km/h 12.9 km/h 88% 0.0 mm 0.00 W/m2
03:30 5.5 °C 3.7 °C 1008.4 hPa SSW 6.4 km/h 12.9 km/h 88% 0.0 mm 0.00 W/m2
03:35 5.7 °C 3.9 °C 1008.4 hPa SSW 4.7 km/h 8.0 km/h 88% 0.0 mm 0.00 W/m2
03:40 5.8 °C 4.0 °C 1008.4 hPa SW 6.4 km/h 11.3 km/h 88% 0.0 mm 0.00 W/m2
03:45 5.8 °C 3.8 °C 1008.4 hPa South 4.7 km/h 6.4 km/h 87% 0.0 mm 0.00 W/m2
03:50 5.8 °C 3.8 °C 1008.4 hPa SSW 4.7 km/h 9.7 km/h 87% 0.0 mm 0.00 W/m2
03:55 5.8 °C 3.8 °C 1008.4 hPa SSW 3.2 km/h 8.0 km/h 87% 0.0 mm 0.00 W/m2
04:00 5.7 °C 3.7 °C 1008.4 hPa South 7.9 km/h 9.7 km/h 87% 0.0 mm 0.00 W/m2
04:05 5.7 °C 3.7 °C 1008.4 hPa South 6.4 km/h 11.3 km/h 87% 0.0 mm 0.00 W/m2
04:10 5.7 °C 3.7 °C 1008.4 hPa South 1.4 km/h 9.7 km/h 87% 0.0 mm 0.00 W/m2
04:15 5.6 °C 3.6 °C 1008.4 hPa South 9.7 km/h 11.3 km/h 87% 0.0 mm 0.00 W/m2
04:20 5.5 °C 3.5 °C 1008.0 hPa SSW 4.7 km/h 12.9 km/h 87% 0.0 mm 0.00 W/m2
04:25 5.4 °C 3.4 °C 1008.0 hPa South 7.9 km/h 14.5 km/h 87% 0.0 mm 0.00 W/m2
04:30 5.4 °C 3.4 °C 1008.0 hPa South 11.1 km/h 12.9 km/h 87% 0.0 mm 0.00 W/m2
04:35 5.4 °C 3.4 °C 1008.0 hPa SSW 7.9 km/h 11.3 km/h 87% 0.0 mm 0.00 W/m2
04:40 5.3 °C 3.3 °C 1008.0 hPa South 9.7 km/h 20.9 km/h 87% 0.0 mm 0.00 W/m2
04:45 5.3 °C 3.3 °C 1007.7 hPa SSW 6.4 km/h 12.9 km/h 87% 0.0 mm 0.00 W/m2
04:50 5.3 °C 3.3 °C 1007.7 hPa SSW 3.2 km/h 11.3 km/h 87% 0.0 mm 0.00 W/m2
04:55 5.3 °C 3.3 °C 1007.7 hPa South 9.7 km/h 14.5 km/h 87% 0.0 mm 0.00 W/m2
05:00 5.2 °C 3.2 °C 1007.7 hPa SW 4.7 km/h 12.9 km/h 87% 0.0 mm 0.00 W/m2
05:05 5.2 °C 3.2 °C 1007.7 hPa South 13.0 km/h 20.9 km/h 87% 0.0 mm 0.00 W/m2
05:10 5.3 °C 3.3 °C 1007.3 hPa South 4.7 km/h 17.7 km/h 87% 0.0 mm 0.00 W/m2
05:15 5.3 °C 3.3 °C 1007.3 hPa South 9.7 km/h 16.1 km/h 87% 0.0 mm 0.00 W/m2
05:20 5.3 °C 3.5 °C 1007.3 hPa South 9.7 km/h 17.7 km/h 88% 0.0 mm 0.00 W/m2
05:25 5.3 °C 3.3 °C 1007.3 hPa South 7.9 km/h 19.3 km/h 87% 0.0 mm 0.00 W/m2
05:30 5.4 °C 3.4 °C 1007.3 hPa SSW 7.9 km/h 16.1 km/h 87% 0.0 mm 0.00 W/m2
05:35 5.4 °C 3.4 °C 1007.3 hPa SSW 16.3 km/h 19.3 km/h 87% 0.0 mm 0.00 W/m2
05:40 5.4 °C 3.6 °C 1007.0 hPa South 14.3 km/h 16.1 km/h 88% 0.0 mm 0.00 W/m2
05:45 5.4 °C 3.6 °C 1007.0 hPa South 13.0 km/h 17.7 km/h 88% 0.0 mm 0.00 W/m2
05:50 5.4 °C 3.6 °C 1007.0 hPa South 7.9 km/h 20.9 km/h 88% 0.0 mm 0.00 W/m2
05:55 5.4 °C 3.6 °C 1007.0 hPa SSW 14.3 km/h 20.9 km/h 88% 0.0 mm 0.00 W/m2
06:00 5.4 °C 3.6 °C 1006.7 hPa SSW 11.1 km/h 16.1 km/h 88% 0.0 mm 0.00 W/m2
06:05 5.4 °C 3.4 °C 1006.7 hPa SSW 9.7 km/h 14.5 km/h 87% 0.0 mm 0.00 W/m2
06:10 5.3 °C 3.3 °C 1006.7 hPa SSW 17.7 km/h 19.3 km/h 87% 0.0 mm 0.00 W/m2
06:15 5.3 °C 3.5 °C 1006.7 hPa South 6.4 km/h 20.9 km/h 88% 0.0 mm 0.00 W/m2
06:20 5.3 °C 3.5 °C 1006.7 hPa South 9.7 km/h 19.3 km/h 88% 0.0 mm 0.00 W/m2
06:25 5.3 °C 3.5 °C 1006.7 hPa SSW 13.0 km/h 19.3 km/h 88% 0.0 mm 0.00 W/m2
06:30 5.3 °C 3.5 °C 1006.7 hPa SSW 19.5 km/h 24.1 km/h 88% 0.0 mm 0.00 W/m2
06:35 5.2 °C 3.4 °C 1006.3 hPa South 3.2 km/h 14.5 km/h 88% 0.0 mm 0.00 W/m2
06:40 5.2 °C 3.4 °C 1006.3 hPa South 9.7 km/h 19.3 km/h 88% 0.0 mm 0.00 W/m2
06:45 5.2 °C 3.4 °C 1006.3 hPa SSW 9.7 km/h 20.9 km/h 88% 0.0 mm 0.00 W/m2
06:50 5.2 °C 3.4 °C 1006.3 hPa South 9.7 km/h 12.9 km/h 88% 0.0 mm 0.00 W/m2
06:55 5.2 °C 3.4 °C 1006.3 hPa South 4.7 km/h 12.9 km/h 88% 0.0 mm 0.00 W/m2
07:00 5.2 °C 3.4 °C 1006.3 hPa South 7.9 km/h 14.5 km/h 88% 0.0 mm 0.00 W/m2
07:05 5.2 °C 3.4 °C 1006.3 hPa SSW 7.9 km/h 11.3 km/h 88% 0.0 mm 0.00 W/m2
07:10 5.3 °C 3.5 °C 1006.3 hPa SSW 13.0 km/h 14.5 km/h 88% 0.0 mm 0.00 W/m2
07:15 5.3 °C 3.5 °C 1006.3 hPa SSE 4.7 km/h 12.9 km/h 88% 0.0 mm 0.00 W/m2
07:20 5.3 °C 3.5 °C 1006.0 hPa SSE 7.9 km/h 14.5 km/h 88% 0.0 mm 0.00 W/m2
07:25 5.3 °C 3.5 °C 1006.0 hPa South 13.0 km/h 14.5 km/h 88% 0.0 mm 0.00 W/m2
07:30 5.3 °C 3.5 °C 1006.0 hPa SSE 6.4 km/h 14.5 km/h 88% 0.0 mm 0.00 W/m2
07:35 5.3 °C 3.3 °C 1006.0 hPa SSE 4.7 km/h 12.9 km/h 87% 0.0 mm 0.00 W/m2
07:40 5.2 °C 3.4 °C 1006.0 hPa SSE 9.7 km/h 19.3 km/h 88% 0.0 mm 0.00 W/m2
07:45 5.2 °C 3.4 °C 1006.0 hPa South 9.7 km/h 12.9 km/h 88% 0.0 mm 0.00 W/m2
07:50 5.2 °C 3.2 °C 1006.0 hPa SSE 6.4 km/h 11.3 km/h 87% 0.0 mm 0.00 W/m2
07:55 5.3 °C 3.5 °C 1006.0 hPa South 3.2 km/h 14.5 km/h 88% 0.0 mm 0.00 W/m2
08:00 5.3 °C 3.5 °C 1005.6 hPa SSW 7.9 km/h 12.9 km/h 88% 0.0 mm 0.00 W/m2
08:05 5.3 °C 3.3 °C 1005.6 hPa SSW 3.2 km/h 4.8 km/h 87% 0.0 mm 5.00 W/m2
08:10 5.2 °C 3.2 °C 1005.6 hPa SSE 3.2 km/h 6.4 km/h 87% 0.0 mm 7.00 W/m2
08:15 5.1 °C 3.1 °C 1005.6 hPa SSE 3.2 km/h 6.4 km/h 87% 0.0 mm 11.00 W/m2
08:20 5.1 °C 3.1 °C 1005.6 hPa Calm     87% 0.0 mm 12.00 W/m2
08:25 5.1 °C 3.3 °C 1005.6 hPa Calm     88% 0.0 mm 16.00 W/m2
08:30 5.0 °C 3.0 °C 1005.6 hPa Calm     87% 0.0 mm 16.00 W/m2
08:35 4.9 °C 3.1 °C 1005.6 hPa South 1.4 km/h 1.6 km/h 88% 0.0 mm 18.00 W/m2
08:40 4.9 °C 3.1 °C 1005.3 hPa Calm   8.0 km/h 88% 0.0 mm 18.00 W/m2
08:45 4.8 °C 3.0 °C 1005.3 hPa Calm     88% 0.0 mm 25.00 W/m2
08:50 4.8 °C 3.0 °C 1005.3 hPa Calm     88% 0.0 mm 32.00 W/m2
08:55 4.8 °C 3.1 °C 1005.3 hPa SW 4.7 km/h 6.4 km/h 89% 0.0 mm 42.00 W/m2
09:00 5.1 °C 3.4 °C 1005.0 hPa Calm   8.0 km/h 89% 0.0 mm 56.00 W/m2
09:05 5.2 °C 3.5 °C 1005.0 hPa SSW 1.4 km/h 8.0 km/h 89% 0.0 mm 70.00 W/m2
09:10 5.4 °C 3.7 °C 1005.0 hPa SSE 6.4 km/h 17.7 km/h 89% 0.0 mm 53.00 W/m2
09:15 5.7 °C 3.9 °C 1005.0 hPa SW 6.4 km/h 16.1 km/h 88% 0.0 mm 65.00 W/m2
09:20 6.0 °C 3.8 °C 1005.0 hPa SSW 1.4 km/h 14.5 km/h 86% 0.0 mm 40.00 W/m2
09:25 6.1 °C 3.8 °C 1005.0 hPa SSW 9.7 km/h 14.5 km/h 85% 0.0 mm 30.00 W/m2
09:30 6.2 °C 3.9 °C 1005.0 hPa SW 11.1 km/h 12.9 km/h 85% 0.0 mm 35.00 W/m2
09:35 6.2 °C 3.7 °C 1004.6 hPa SSW 1.4 km/h 14.5 km/h 84% 0.0 mm 44.00 W/m2
09:40 6.3 °C 3.6 °C 1004.6 hPa WSW 4.7 km/h 14.5 km/h 83% 0.0 mm 37.00 W/m2
09:45 6.3 °C 3.6 °C 1004.6 hPa Calm   6.4 km/h 83% 0.0 mm 109.00 W/m2
09:50 6.4 °C 3.6 °C 1004.6 hPa SW 16.3 km/h 20.9 km/h 82% 0.0 mm 127.00 W/m2
09:55 6.6 °C 3.7 °C 1004.3 hPa SE 6.4 km/h 11.3 km/h 82% 0.0 mm 125.00 W/m2
10:00 6.8 °C 3.9 °C 1004.3 hPa Calm   4.8 km/h 82% 0.0 mm 137.00 W/m2
10:05 6.9 °C 4.0 °C 1004.3 hPa ESE 7.9 km/h 12.9 km/h 82% 0.0 mm 134.00 W/m2
10:10 7.0 °C 4.1 °C 1003.9 hPa WSW 4.7 km/h 12.9 km/h 82% 0.0 mm 139.00 W/m2
10:15 7.0 °C 4.0 °C 1003.9 hPa South 3.2 km/h 14.5 km/h 81% 0.0 mm 153.00 W/m2
10:20 7.1 °C 4.2 °C 1003.6 hPa SSW 11.1 km/h 17.7 km/h 82% 0.0 mm 163.00 W/m2
10:25 7.3 °C 4.4 °C 1003.6 hPa South 6.4 km/h 14.5 km/h 82% 0.0 mm 185.00 W/m2
10:30 7.5 °C 4.6 °C 1003.6 hPa South 14.3 km/h 19.3 km/h 82% 0.0 mm 199.00 W/m2
10:35 7.6 °C 4.5 °C 1003.3 hPa SW 4.7 km/h 17.7 km/h 81% 0.0 mm 218.00 W/m2
10:40 7.7 °C 4.6 °C 1003.3 hPa SSW 7.9 km/h 17.7 km/h 81% 0.0 mm 181.00 W/m2
10:45 7.7 °C 4.5 °C 1003.3 hPa SSW 20.9 km/h 20.9 km/h 80% 0.0 mm 167.00 W/m2
10:50 7.7 °C 4.5 °C 1003.3 hPa SSW 7.9 km/h 20.9 km/h 80% 0.0 mm 151.00 W/m2
10:55 7.7 °C 4.5 °C 1003.3 hPa SW 11.1 km/h 20.9 km/h 80% 0.0 mm 69.00 W/m2
11:00 7.5 °C 4.3 °C 1002.9 hPa SSW 9.7 km/h 17.7 km/h 80% 0.0 mm 49.00 W/m2
11:05 7.3 °C 4.1 °C 1002.9 hPa SSW 13.0 km/h 16.1 km/h 80% 0.0 mm 63.00 W/m2
11:10 7.2 °C 4.2 °C 1002.9 hPa SSW 1.4 km/h 22.5 km/h 81% 0.0 mm 76.00 W/m2
11:15 7.1 °C 4.1 °C 1002.6 hPa South 7.9 km/h 14.5 km/h 81% 0.0 mm 77.00 W/m2
11:20 7.1 °C 4.1 °C 1002.6 hPa SSW 6.4 km/h 16.1 km/h 81% 0.0 mm 49.00 W/m2
11:25 7.1 °C 4.1 °C 1002.6 hPa South 13.0 km/h 17.7 km/h 81% 0.0 mm 35.00 W/m2
11:30 7.1 °C 4.1 °C 1002.6 hPa South 4.7 km/h 9.7 km/h 81% 0.0 mm 47.00 W/m2
11:35 7.1 °C 4.2 °C 1002.6 hPa South 6.4 km/h 12.9 km/h 82% 0.0 mm 86.00 W/m2
11:40 7.1 °C 4.4 °C 1002.6 hPa SSW 4.7 km/h 12.9 km/h 83% 0.3 mm 84.00 W/m2
11:45 6.9 °C 4.2 °C 1002.3 hPa SSW 14.3 km/h 20.9 km/h 83% 0.3 mm 128.00 W/m2
11:50 6.8 °C 4.3 °C 1002.3 hPa Calm   17.7 km/h 84% 0.3 mm 135.00 W/m2
11:55 6.7 °C 4.4 °C 1001.9 hPa South 6.4 km/h 12.9 km/h 85% 0.3 mm 102.00 W/m2
12:00 6.7 °C 4.4 °C 1001.9 hPa SSW 13.0 km/h 17.7 km/h 85% 0.3 mm 107.00 W/m2
12:05 6.8 °C 4.5 °C 1001.6 hPa South 7.9 km/h 17.7 km/h 85% 0.3 mm 144.00 W/m2
12:10 6.9 °C 4.6 °C 1001.6 hPa SSE 3.2 km/h 16.1 km/h 85% 0.3 mm 148.00 W/m2